sensor_id;sensor_type;location;lat;lon;timestamp;pressure;altitude;pressure_sealevel;temperature
75822;BMP180;64454;51.984;9.838;2023-04-03T00:00:37;101621.00;;;2.70
75822;BMP180;64454;51.984;9.838;2023-04-03T00:03:05;101629.00;;;2.60
75822;BMP180;64454;51.984;9.838;2023-04-03T00:05:32;101631.00;;;2.60
75822;BMP180;64454;51.984;9.838;2023-04-03T00:07:59;101636.00;;;2.90
75822;BMP180;64454;51.984;9.838;2023-04-03T00:10:27;101636.00;;;3.00
75822;BMP180;64454;51.984;9.838;2023-04-03T00:12:54;101652.00;;;2.90
75822;BMP180;64454;51.984;9.838;2023-04-03T00:15:21;101645.00;;;2.90
75822;BMP180;64454;51.984;9.838;2023-04-03T00:17:48;101651.00;;;2.70
75822;BMP180;64454;51.984;9.838;2023-04-03T00:20:16;101650.00;;;2.50
75822;BMP180;64454;51.984;9.838;2023-04-03T00:22:43;101649.00;;;2.60
75822;BMP180;64454;51.984;9.838;2023-04-03T00:25:10;101652.00;;;2.60
75822;BMP180;64454;51.984;9.838;2023-04-03T00:27:38;101660.00;;;2.40
75822;BMP180;64454;51.984;9.838;2023-04-03T00:30:08;101655.00;;;2.40
75822;BMP180;64454;51.984;9.838;2023-04-03T00:32:36;101658.00;;;2.40
75822;BMP180;64454;51.984;9.838;2023-04-03T00:35:04;101661.00;;;2.50
75822;BMP180;64454;51.984;9.838;2023-04-03T00:37:32;101661.00;;;2.60
75822;BMP180;64454;51.984;9.838;2023-04-03T00:40:00;101666.00;;;2.50
75822;BMP180;64454;51.984;9.838;2023-04-03T00:42:27;101662.00;;;2.70
75822;BMP180;64454;51.984;9.838;2023-04-03T00:48:01;101654.00;;;2.70
75822;BMP180;64454;51.984;9.838;2023-04-03T00:50:35;101666.00;;;2.60
75822;BMP180;64454;51.984;9.838;2023-04-03T00:53:06;101670.00;;;2.60
75822;BMP180;64454;51.984;9.838;2023-04-03T00:55:36;101664.00;;;2.70
75822;BMP180;64454;51.984;9.838;2023-04-03T00:58:06;101676.00;;;2.20
75822;BMP180;64454;51.984;9.838;2023-04-03T01:00:36;101677.00;;;2.20
75822;BMP180;64454;51.984;9.838;2023-04-03T01:03:04;101676.00;;;2.40
75822;BMP180;64454;51.984;9.838;2023-04-03T01:05:31;101676.00;;;2.30
75822;BMP180;64454;51.984;9.838;2023-04-03T01:07:58;101677.00;;;2.20
75822;BMP180;64454;51.984;9.838;2023-04-03T01:10:27;101672.00;;;2.40
75822;BMP180;64454;51.984;9.838;2023-04-03T01:12:55;101672.00;;;2.40
75822;BMP180;64454;51.984;9.838;2023-04-03T01:15:25;101674.00;;;2.30
75822;BMP180;64454;51.984;9.838;2023-04-03T01:17:57;101671.00;;;2.10
75822;BMP180;64454;51.984;9.838;2023-04-03T01:21:06;101666.00;;;2.20
75822;BMP180;64454;51.984;9.838;2023-04-03T01:23:52;101670.00;;;2.40
75822;BMP180;64454;51.984;9.838;2023-04-03T01:26:24;101666.00;;;2.50
75822;BMP180;64454;51.984;9.838;2023-04-03T01:28:53;101668.00;;;2.30
75822;BMP180;64454;51.984;9.838;2023-04-03T01:31:26;101666.00;;;2.30
75822;BMP180;64454;51.984;9.838;2023-04-03T01:33:55;101664.00;;;2.30
75822;BMP180;64454;51.984;9.838;2023-04-03T01:36:25;101671.00;;;2.30
75822;BMP180;64454;51.984;9.838;2023-04-03T01:38:53;101661.00;;;2.20
75822;BMP180;64454;51.984;9.838;2023-04-03T01:41:21;101676.00;;;2.20
75822;BMP180;64454;51.984;9.838;2023-04-03T01:43:49;101674.00;;;2.10
75822;BMP180;64454;51.984;9.838;2023-04-03T01:46:17;101668.00;;;2.00
75822;BMP180;64454;51.984;9.838;2023-04-03T01:48:44;101673.00;;;2.00
75822;BMP180;64454;51.984;9.838;2023-04-03T01:51:12;101673.00;;;2.10
75822;BMP180;64454;51.984;9.838;2023-04-03T01:53:40;101680.00;;;2.10
75822;BMP180;64454;51.984;9.838;2023-04-03T01:56:07;101674.00;;;2.00
75822;BMP180;64454;51.984;9.838;2023-04-03T01:58:34;101677.00;;;2.00
75822;BMP180;64454;51.984;9.838;2023-04-03T02:01:01;101679.00;;;1.90
75822;BMP180;64454;51.984;9.838;2023-04-03T02:03:28;101687.00;;;1.90
75822;BMP180;64454;51.984;9.838;2023-04-03T02:05:55;101692.00;;;1.80
75822;BMP180;64454;51.984;9.838;2023-04-03T02:08:23;101695.00;;;1.30
75822;BMP180;64454;51.984;9.838;2023-04-03T02:10:50;101699.00;;;1.50
75822;BMP180;64454;51.984;9.838;2023-04-03T02:13:17;101698.00;;;1.20
75822;BMP180;64454;51.984;9.838;2023-04-03T02:15:45;101695.00;;;1.40
75822;BMP180;64454;51.984;9.838;2023-04-03T02:18:12;101689.00;;;1.50
75822;BMP180;64454;51.984;9.838;2023-04-03T02:20:39;101682.00;;;1.70
75822;BMP180;64454;51.984;9.838;2023-04-03T02:23:06;101682.00;;;1.60
75822;BMP180;64454;51.984;9.838;2023-04-03T02:25:34;101683.00;;;1.50
75822;BMP180;64454;51.984;9.838;2023-04-03T02:28:01;101685.00;;;1.60
75822;BMP180;64454;51.984;9.838;2023-04-03T02:30:28;101675.00;;;1.50
75822;BMP180;64454;51.984;9.838;2023-04-03T02:32:55;101692.00;;;1.60
75822;BMP180;64454;51.984;9.838;2023-04-03T02:35:22;101700.00;;;1.60
75822;BMP180;64454;51.984;9.838;2023-04-03T02:37:48;101696.00;;;1.50
75822;BMP180;64454;51.984;9.838;2023-04-03T02:40:16;101695.00;;;1.50
75822;BMP180;64454;51.984;9.838;2023-04-03T02:42:44;101682.00;;;1.40
75822;BMP180;64454;51.984;9.838;2023-04-03T02:45:11;101691.00;;;1.20
75822;BMP180;64454;51.984;9.838;2023-04-03T02:47:37;101693.00;;;1.50
75822;BMP180;64454;51.984;9.838;2023-04-03T02:50:05;101694.00;;;1.40
75822;BMP180;64454;51.984;9.838;2023-04-03T02:52:32;101694.00;;;1.30
75822;BMP180;64454;51.984;9.838;2023-04-03T02:54:59;101694.00;;;1.30
75822;BMP180;64454;51.984;9.838;2023-04-03T02:57:25;101698.00;;;1.30
75822;BMP180;64454;51.984;9.838;2023-04-03T02:59:53;101704.00;;;1.20
75822;BMP180;64454;51.984;9.838;2023-04-03T03:02:20;101701.00;;;1.40
75822;BMP180;64454;51.984;9.838;2023-04-03T03:04:47;101704.00;;;1.20
75822;BMP180;64454;51.984;9.838;2023-04-03T03:07:14;101705.00;;;1.40
75822;BMP180;64454;51.984;9.838;2023-04-03T03:09:41;101706.00;;;1.20
75822;BMP180;64454;51.984;9.838;2023-04-03T03:12:08;101702.00;;;1.20
75822;BMP180;64454;51.984;9.838;2023-04-03T03:14:35;101711.00;;;1.20
75822;BMP180;64454;51.984;9.838;2023-04-03T03:17:03;101711.00;;;1.30
75822;BMP180;64454;51.984;9.838;2023-04-03T03:19:30;101713.00;;;1.30
75822;BMP180;64454;51.984;9.838;2023-04-03T03:21:56;101709.00;;;1.30
75822;BMP180;64454;51.984;9.838;2023-04-03T03:24:23;101713.00;;;1.30
75822;BMP180;64454;51.984;9.838;2023-04-03T03:26:50;101710.00;;;1.20
75822;BMP180;64454;51.984;9.838;2023-04-03T03:29:17;101715.00;;;1.50
75822;BMP180;64454;51.984;9.838;2023-04-03T03:31:44;101716.00;;;1.50
75822;BMP180;64454;51.984;9.838;2023-04-03T03:34:13;101722.00;;;1.40
75822;BMP180;64454;51.984;9.838;2023-04-03T03:36:43;101722.00;;;1.30
75822;BMP180;64454;51.984;9.838;2023-04-03T03:39:10;101723.00;;;1.10
75822;BMP180;64454;51.984;9.838;2023-04-03T03:41:37;101721.00;;;1.20
75822;BMP180;64454;51.984;9.838;2023-04-03T03:44:04;101722.00;;;1.30
75822;BMP180;64454;51.984;9.838;2023-04-03T03:46:31;101725.00;;;1.30
75822;BMP180;64454;51.984;9.838;2023-04-03T03:48:58;101725.00;;;1.30
75822;BMP180;64454;51.984;9.838;2023-04-03T03:51:26;101719.00;;;1.20
75822;BMP180;64454;51.984;9.838;2023-04-03T03:53:53;101720.00;;;1.20
75822;BMP180;64454;51.984;9.838;2023-04-03T03:56:20;101720.00;;;1.20
75822;BMP180;64454;51.984;9.838;2023-04-03T03:58:47;101718.00;;;1.20
75822;BMP180;64454;51.984;9.838;2023-04-03T04:01:15;101725.00;;;1.00
75822;BMP180;64454;51.984;9.838;2023-04-03T04:03:42;101722.00;;;0.90
75822;BMP180;64454;51.984;9.838;2023-04-03T04:06:09;101721.00;;;1.10
75822;BMP180;64454;51.984;9.838;2023-04-03T04:08:37;101723.00;;;1.10
75822;BMP180;64454;51.984;9.838;2023-04-03T04:11:04;101719.00;;;1.00
75822;BMP180;64454;51.984;9.838;2023-04-03T04:13:31;101719.00;;;1.10
75822;BMP180;64454;51.984;9.838;2023-04-03T04:15:58;101734.00;;;1.20
75822;BMP180;64454;51.984;9.838;2023-04-03T04:18:25;101737.00;;;0.80
75822;BMP180;64454;51.984;9.838;2023-04-03T04:20:51;101731.00;;;0.80
75822;BMP180;64454;51.984;9.838;2023-04-03T04:23:18;101734.00;;;0.80
75822;BMP180;64454;51.984;9.838;2023-04-03T04:25:48;101734.00;;;0.50
75822;BMP180;64454;51.984;9.838;2023-04-03T04:28:15;101740.00;;;0.80
75822;BMP180;64454;51.984;9.838;2023-04-03T04:30:43;101743.00;;;0.60
75822;BMP180;64454;51.984;9.838;2023-04-03T04:33:10;101741.00;;;0.90
75822;BMP180;64454;51.984;9.838;2023-04-03T04:35:36;101745.00;;;0.90
75822;BMP180;64454;51.984;9.838;2023-04-03T04:38:03;101751.00;;;0.90
75822;BMP180;64454;51.984;9.838;2023-04-03T04:40:31;101749.00;;;0.90
75822;BMP180;64454;51.984;9.838;2023-04-03T04:42:59;101744.00;;;1.00
75822;BMP180;64454;51.984;9.838;2023-04-03T04:45:26;101741.00;;;0.90
75822;BMP180;64454;51.984;9.838;2023-04-03T04:47:55;101744.00;;;0.70
75822;BMP180;64454;51.984;9.838;2023-04-03T04:50:22;101748.00;;;0.80
75822;BMP180;64454;51.984;9.838;2023-04-03T04:52:49;101742.00;;;0.50
75822;BMP180;64454;51.984;9.838;2023-04-03T04:55:16;101747.00;;;0.30
75822;BMP180;64454;51.984;9.838;2023-04-03T04:57:43;101739.00;;;0.10
75822;BMP180;64454;51.984;9.838;2023-04-03T05:00:13;101747.00;;;0.30
75822;BMP180;64454;51.984;9.838;2023-04-03T05:02:41;101747.00;;;0.40
75822;BMP180;64454;51.984;9.838;2023-04-03T05:05:08;101756.00;;;-0.20
75822;BMP180;64454;51.984;9.838;2023-04-03T05:07:35;101754.00;;;0.30
75822;BMP180;64454;51.984;9.838;2023-04-03T05:10:02;101762.00;;;0.00
75822;BMP180;64454;51.984;9.838;2023-04-03T05:12:30;101758.00;;;0.30
75822;BMP180;64454;51.984;9.838;2023-04-03T05:14:56;101762.00;;;0.20
75822;BMP180;64454;51.984;9.838;2023-04-03T05:17:25;101760.00;;;0.40
75822;BMP180;64454;51.984;9.838;2023-04-03T05:19:51;101769.00;;;0.20
75822;BMP180;64454;51.984;9.838;2023-04-03T05:22:18;101768.00;;;0.30
75822;BMP180;64454;51.984;9.838;2023-04-03T05:24:45;101759.00;;;0.50
75822;BMP180;64454;51.984;9.838;2023-04-03T05:27:12;101763.00;;;0.50
75822;BMP180;64454;51.984;9.838;2023-04-03T05:29:39;101764.00;;;0.40
75822;BMP180;64454;51.984;9.838;2023-04-03T05:32:09;101763.00;;;0.40
75822;BMP180;64454;51.984;9.838;2023-04-03T05:34:37;101759.00;;;0.60
75822;BMP180;64454;51.984;9.838;2023-04-03T05:37:04;101772.00;;;0.60
75822;BMP180;64454;51.984;9.838;2023-04-03T05:39:31;101761.00;;;0.80
75822;BMP180;64454;51.984;9.838;2023-04-03T05:41:58;101773.00;;;0.60
75822;BMP180;64454;51.984;9.838;2023-04-03T05:44:25;101774.00;;;0.60
75822;BMP180;64454;51.984;9.838;2023-04-03T05:46:52;101776.00;;;0.40
75822;BMP180;64454;51.984;9.838;2023-04-03T05:49:20;101784.00;;;0.30
75822;BMP180;64454;51.984;9.838;2023-04-03T05:51:48;101783.00;;;0.30
75822;BMP180;64454;51.984;9.838;2023-04-03T05:54:20;101787.00;;;0.50
75822;BMP180;64454;51.984;9.838;2023-04-03T05:56:48;101780.00;;;0.60
75822;BMP180;64454;51.984;9.838;2023-04-03T05:59:15;101784.00;;;0.60
75822;BMP180;64454;51.984;9.838;2023-04-03T06:01:43;101785.00;;;0.70
75822;BMP180;64454;51.984;9.838;2023-04-03T06:04:10;101793.00;;;0.80
75822;BMP180;64454;51.984;9.838;2023-04-03T06:06:48;101800.00;;;0.80
75822;BMP180;64454;51.984;9.838;2023-04-03T06:09:20;101806.00;;;0.80
75822;BMP180;64454;51.984;9.838;2023-04-03T06:11:47;101805.00;;;0.80
75822;BMP180;64454;51.984;9.838;2023-04-03T06:14:15;101817.00;;;1.20
75822;BMP180;64454;51.984;9.838;2023-04-03T06:16:43;101819.00;;;1.20
75822;BMP180;64454;51.984;9.838;2023-04-03T06:19:11;101820.00;;;1.30
75822;BMP180;64454;51.984;9.838;2023-04-03T06:21:39;101818.00;;;1.30
75822;BMP180;64454;51.984;9.838;2023-04-03T06:24:07;101825.00;;;1.30
75822;BMP180;64454;51.984;9.838;2023-04-03T06:26:35;101824.00;;;1.60
75822;BMP180;64454;51.984;9.838;2023-04-03T06:29:02;101828.00;;;1.60
75822;BMP180;64454;51.984;9.838;2023-04-03T06:31:29;101833.00;;;1.50
75822;BMP180;64454;51.984;9.838;2023-04-03T06:33:55;101831.00;;;1.60
75822;BMP180;64454;51.984;9.838;2023-04-03T06:36:22;101826.00;;;2.10
75822;BMP180;64454;51.984;9.838;2023-04-03T06:38:50;101829.00;;;2.10
75822;BMP180;64454;51.984;9.838;2023-04-03T06:41:18;101833.00;;;2.30
75822;BMP180;64454;51.984;9.838;2023-04-03T06:43:45;101839.00;;;2.40
75822;BMP180;64454;51.984;9.838;2023-04-03T06:46:16;101838.00;;;2.30
75822;BMP180;64454;51.984;9.838;2023-04-03T06:48:44;101843.00;;;2.40
75822;BMP180;64454;51.984;9.838;2023-04-03T06:51:17;101845.00;;;2.50
75822;BMP180;64454;51.984;9.838;2023-04-03T06:53:46;101845.00;;;2.70
75822;BMP180;64454;51.984;9.838;2023-04-03T06:56:13;101850.00;;;2.70
75822;BMP180;64454;51.984;9.838;2023-04-03T06:58:42;101852.00;;;2.30
75822;BMP180;64454;51.984;9.838;2023-04-03T07:01:10;101861.00;;;2.30
75822;BMP180;64454;51.984;9.838;2023-04-03T07:03:38;101864.00;;;2.60
75822;BMP180;64454;51.984;9.838;2023-04-03T07:06:07;101862.00;;;3.00
75822;BMP180;64454;51.984;9.838;2023-04-03T07:08:35;101854.00;;;2.70
75822;BMP180;64454;51.984;9.838;2023-04-03T07:11:03;101863.00;;;2.90
75822;BMP180;64454;51.984;9.838;2023-04-03T07:13:30;101865.00;;;3.10
75822;BMP180;64454;51.984;9.838;2023-04-03T07:15:58;101870.00;;;3.10
75822;BMP180;64454;51.984;9.838;2023-04-03T07:18:25;101869.00;;;3.10
75822;BMP180;64454;51.984;9.838;2023-04-03T07:20:52;101875.00;;;3.20
75822;BMP180;64454;51.984;9.838;2023-04-03T07:23:19;101870.00;;;3.00
75822;BMP180;64454;51.984;9.838;2023-04-03T07:25:47;101876.00;;;3.20
75822;BMP180;64454;51.984;9.838;2023-04-03T07:28:16;101881.00;;;3.40
75822;BMP180;64454;51.984;9.838;2023-04-03T07:30:45;101875.00;;;3.30
75822;BMP180;64454;51.984;9.838;2023-04-03T07:33:16;101884.00;;;3.50
75822;BMP180;64454;51.984;9.838;2023-04-03T07:35:43;101884.00;;;3.80
75822;BMP180;64454;51.984;9.838;2023-04-03T07:38:12;101890.00;;;3.70
75822;BMP180;64454;51.984;9.838;2023-04-03T07:40:39;101885.00;;;3.50
75822;BMP180;64454;51.984;9.838;2023-04-03T07:43:06;101887.00;;;3.50
75822;BMP180;64454;51.984;9.838;2023-04-03T07:45:35;101892.00;;;3.50
75822;BMP180;64454;51.984;9.838;2023-04-03T07:48:02;101886.00;;;3.70
75822;BMP180;64454;51.984;9.838;2023-04-03T07:50:30;101892.00;;;4.50
75822;BMP180;64454;51.984;9.838;2023-04-03T07:52:57;101880.00;;;4.20
75822;BMP180;64454;51.984;9.838;2023-04-03T07:55:24;101884.00;;;5.10
75822;BMP180;64454;51.984;9.838;2023-04-03T07:57:51;101884.00;;;5.30
75822;BMP180;64454;51.984;9.838;2023-04-03T08:00:19;101878.00;;;5.60
75822;BMP180;64454;51.984;9.838;2023-04-03T08:02:46;101877.00;;;6.60
75822;BMP180;64454;51.984;9.838;2023-04-03T08:05:16;101870.00;;;7.70
75822;BMP180;64454;51.984;9.838;2023-04-03T08:07:44;101873.00;;;7.50
75822;BMP180;64454;51.984;9.838;2023-04-03T08:10:12;101870.00;;;8.40
75822;BMP180;64454;51.984;9.838;2023-04-03T08:12:39;101865.00;;;8.40
75822;BMP180;64454;51.984;9.838;2023-04-03T08:15:07;101861.00;;;8.40
75822;BMP180;64454;51.984;9.838;2023-04-03T08:17:35;101871.00;;;10.30
75822;BMP180;64454;51.984;9.838;2023-04-03T08:20:03;101855.00;;;10.10
75822;BMP180;64454;51.984;9.838;2023-04-03T08:22:30;101858.00;;;11.10
75822;BMP180;64454;51.984;9.838;2023-04-03T08:24:58;101865.00;;;10.40
75822;BMP180;64454;51.984;9.838;2023-04-03T08:27:26;101860.00;;;11.70
75822;BMP180;64454;51.984;9.838;2023-04-03T08:29:53;101861.00;;;11.60
75822;BMP180;64454;51.984;9.838;2023-04-03T08:32:20;101864.00;;;14.30
75822;BMP180;64454;51.984;9.838;2023-04-03T08:34:47;101855.00;;;12.50
75822;BMP180;64454;51.984;9.838;2023-04-03T08:37:14;101860.00;;;13.40
75822;BMP180;64454;51.984;9.838;2023-04-03T08:39:41;101878.00;;;13.40
75822;BMP180;64454;51.984;9.838;2023-04-03T08:42:19;101852.00;;;11.90
75822;BMP180;64454;51.984;9.838;2023-04-03T08:44:59;101869.00;;;12.80
75822;BMP180;64454;51.984;9.838;2023-04-03T08:47:38;101870.00;;;11.00
75822;BMP180;64454;51.984;9.838;2023-04-03T08:50:10;101853.00;;;10.20
75822;BMP180;64454;51.984;9.838;2023-04-03T08:52:41;101871.00;;;11.70
75822;BMP180;64454;51.984;9.838;2023-04-03T08:55:22;101861.00;;;7.70
75822;BMP180;64454;51.984;9.838;2023-04-03T08:57:59;101838.00;;;9.60
75822;BMP180;64454;51.984;9.838;2023-04-03T09:00:32;101873.00;;;11.20
75822;BMP180;64454;51.984;9.838;2023-04-03T09:03:01;101849.00;;;9.80
75822;BMP180;64454;51.984;9.838;2023-04-03T09:05:40;101848.00;;;11.70
75822;BMP180;64454;51.984;9.838;2023-04-03T09:08:22;101838.00;;;13.20
75822;BMP180;64454;51.984;9.838;2023-04-03T09:10:53;101844.00;;;13.30
75822;BMP180;64454;51.984;9.838;2023-04-03T09:13:30;101857.00;;;13.00
75822;BMP180;64454;51.984;9.838;2023-04-03T09:16:05;101835.00;;;13.90
75822;BMP180;64454;51.984;9.838;2023-04-03T09:18:45;101857.00;;;12.90
75822;BMP180;64454;51.984;9.838;2023-04-03T09:21:21;101861.00;;;11.60
75822;BMP180;64454;51.984;9.838;2023-04-03T09:23:53;101839.00;;;11.60
75822;BMP180;64454;51.984;9.838;2023-04-03T09:26:28;101834.00;;;12.10
75822;BMP180;64454;51.984;9.838;2023-04-03T09:29:02;101823.00;;;15.30
75822;BMP180;64454;51.984;9.838;2023-04-03T09:31:38;101832.00;;;17.30
75822;BMP180;64454;51.984;9.838;2023-04-03T09:34:10;101844.00;;;15.50
75822;BMP180;64454;51.984;9.838;2023-04-03T09:36:44;101853.00;;;16.10
75822;BMP180;64454;51.984;9.838;2023-04-03T09:39:17;101815.00;;;16.60
75822;BMP180;64454;51.984;9.838;2023-04-03T09:41:59;101829.00;;;16.60
75822;BMP180;64454;51.984;9.838;2023-04-03T09:44:31;101836.00;;;15.20
75822;BMP180;64454;51.984;9.838;2023-04-03T09:46:58;101807.00;;;12.30
75822;BMP180;64454;51.984;9.838;2023-04-03T09:49:26;101826.00;;;14.20
75822;BMP180;64454;51.984;9.838;2023-04-03T09:51:53;101818.00;;;16.00
75822;BMP180;64454;51.984;9.838;2023-04-03T09:54:36;101823.00;;;15.20
75822;BMP180;64454;51.984;9.838;2023-04-03T09:57:10;101792.00;;;14.50
75822;BMP180;64454;51.984;9.838;2023-04-03T09:59:47;101791.00;;;16.10
75822;BMP180;64454;51.984;9.838;2023-04-03T10:02:35;101832.00;;;16.00
75822;BMP180;64454;51.984;9.838;2023-04-03T10:05:03;101838.00;;;15.10
75822;BMP180;64454;51.984;9.838;2023-04-03T10:07:34;101829.00;;;11.70
75822;BMP180;64454;51.984;9.838;2023-04-03T10:10:20;101825.00;;;10.00
75822;BMP180;64454;51.984;9.838;2023-04-03T10:13:03;101837.00;;;10.40
75822;BMP180;64454;51.984;9.838;2023-04-03T10:15:40;101838.00;;;9.70
75822;BMP180;64454;51.984;9.838;2023-04-03T10:18:28;101837.00;;;8.80
75822;BMP180;64454;51.984;9.838;2023-04-03T10:20:59;101824.00;;;8.60
75822;BMP180;64454;51.984;9.838;2023-04-03T10:23:33;101834.00;;;8.40
75822;BMP180;64454;51.984;9.838;2023-04-03T10:26:15;101813.00;;;8.50
75822;BMP180;64454;51.984;9.838;2023-04-03T10:28:52;101835.00;;;8.10
75822;BMP180;64454;51.984;9.838;2023-04-03T10:31:29;101825.00;;;7.40
75822;BMP180;64454;51.984;9.838;2023-04-03T10:34:06;101830.00;;;6.50
75822;BMP180;64454;51.984;9.838;2023-04-03T10:36:49;101821.00;;;7.10
75822;BMP180;64454;51.984;9.838;2023-04-03T10:39:31;101816.00;;;7.70
75822;BMP180;64454;51.984;9.838;2023-04-03T10:42:08;101817.00;;;7.70
75822;BMP180;64454;51.984;9.838;2023-04-03T10:44:52;101823.00;;;7.30
75822;BMP180;64454;51.984;9.838;2023-04-03T10:47:32;101811.00;;;8.20
75822;BMP180;64454;51.984;9.838;2023-04-03T10:50:22;101823.00;;;9.20
75822;BMP180;64454;51.984;9.838;2023-04-03T10:53:01;101817.00;;;8.80
75822;BMP180;64454;51.984;9.838;2023-04-03T10:55:37;101814.00;;;8.80
75822;BMP180;64454;51.984;9.838;2023-04-03T10:58:06;101820.00;;;8.20
75822;BMP180;64454;51.984;9.838;2023-04-03T11:00:41;101813.00;;;7.40
75822;BMP180;64454;51.984;9.838;2023-04-03T11:03:16;101808.00;;;7.50
75822;BMP180;64454;51.984;9.838;2023-04-03T11:05:52;101803.00;;;7.10
75822;BMP180;64454;51.984;9.838;2023-04-03T11:08:27;101796.00;;;7.50
75822;BMP180;64454;51.984;9.838;2023-04-03T11:10:58;101759.00;;;9.80
75822;BMP180;64454;51.984;9.838;2023-04-03T11:13:33;101792.00;;;10.20
75822;BMP180;64454;51.984;9.838;2023-04-03T11:16:04;101795.00;;;9.80
75822;BMP180;64454;51.984;9.838;2023-04-03T11:18:40;101795.00;;;9.20
75822;BMP180;64454;51.984;9.838;2023-04-03T11:21:17;101745.00;;;11.00
75822;BMP180;64454;51.984;9.838;2023-04-03T11:23:48;101778.00;;;13.00
75822;BMP180;64454;51.984;9.838;2023-04-03T11:26:18;101781.00;;;11.50
75822;BMP180;64454;51.984;9.838;2023-04-03T11:28:52;101775.00;;;11.50
75822;BMP180;64454;51.984;9.838;2023-04-03T11:31:35;101784.00;;;10.30
75822;BMP180;64454;51.984;9.838;2023-04-03T11:34:24;101776.00;;;9.50
75822;BMP180;64454;51.984;9.838;2023-04-03T11:36:58;101770.00;;;9.40
75822;BMP180;64454;51.984;9.838;2023-04-03T11:39:30;101758.00;;;10.60
75822;BMP180;64454;51.984;9.838;2023-04-03T11:42:15;101765.00;;;11.00
75822;BMP180;64454;51.984;9.838;2023-04-03T11:44:43;101775.00;;;11.00
75822;BMP180;64454;51.984;9.838;2023-04-03T11:47:11;101777.00;;;10.60
75822;BMP180;64454;51.984;9.838;2023-04-03T11:50:02;101778.00;;;9.80
75822;BMP180;64454;51.984;9.838;2023-04-03T11:53:00;101783.00;;;8.80
75822;BMP180;64454;51.984;9.838;2023-04-03T11:55:53;101773.00;;;8.20
75822;BMP180;64454;51.984;9.838;2023-04-03T11:58:23;101774.00;;;8.30
75822;BMP180;64454;51.984;9.838;2023-04-03T12:04:05;101759.00;;;9.00
75822;BMP180;64454;51.984;9.838;2023-04-03T12:07:12;101764.00;;;10.10
75822;BMP180;64454;51.984;9.838;2023-04-03T12:10:16;101750.00;;;10.90
75822;BMP180;64454;51.984;9.838;2023-04-03T12:12:55;101746.00;;;10.60
75822;BMP180;64454;51.984;9.838;2023-04-03T12:15:53;101765.00;;;10.70
75822;BMP180;64454;51.984;9.838;2023-04-03T12:18:58;101725.00;;;12.60
75822;BMP180;64454;51.984;9.838;2023-04-03T12:24:51;101719.00;;;15.10
75822;BMP180;64454;51.984;9.838;2023-04-03T12:27:29;101706.00;;;14.80
75822;BMP180;64454;51.984;9.838;2023-04-03T12:30:20;101738.00;;;17.00
75822;BMP180;64454;51.984;9.838;2023-04-03T12:33:05;101733.00;;;15.60
75822;BMP180;64454;51.984;9.838;2023-04-03T12:35:54;101737.00;;;14.10
75822;BMP180;64454;51.984;9.838;2023-04-03T12:38:57;101737.00;;;12.40
75822;BMP180;64454;51.984;9.838;2023-04-03T12:41:38;101732.00;;;11.20
75822;BMP180;64454;51.984;9.838;2023-04-03T12:44:41;101709.00;;;10.60
75822;BMP180;64454;51.984;9.838;2023-04-03T12:47:25;101685.00;;;13.50
75822;BMP180;64454;51.984;9.838;2023-04-03T12:49:54;101691.00;;;16.60
75822;BMP180;64454;51.984;9.838;2023-04-03T12:52:33;101693.00;;;19.90
75822;BMP180;64454;51.984;9.838;2023-04-03T12:55:07;101689.00;;;17.90
75822;BMP180;64454;51.984;9.838;2023-04-03T12:57:37;101690.00;;;19.30
75822;BMP180;64454;51.984;9.838;2023-04-03T13:00:21;101676.00;;;17.80
75822;BMP180;64454;51.984;9.838;2023-04-03T13:02:49;101674.00;;;18.50
75822;BMP180;64454;51.984;9.838;2023-04-03T13:05:19;101671.00;;;16.50
75822;BMP180;64454;51.984;9.838;2023-04-03T13:07:50;101690.00;;;18.50
75822;BMP180;64454;51.984;9.838;2023-04-03T13:10:20;101668.00;;;18.30
75822;BMP180;64454;51.984;9.838;2023-04-03T13:12:52;101660.00;;;19.40
75822;BMP180;64454;51.984;9.838;2023-04-03T13:15:27;101668.00;;;18.70
75822;BMP180;64454;51.984;9.838;2023-04-03T13:17:55;101685.00;;;18.60
75822;BMP180;64454;51.984;9.838;2023-04-03T13:20:26;101656.00;;;15.90
75822;BMP180;64454;51.984;9.838;2023-04-03T13:23:01;101675.00;;;18.70
75822;BMP180;64454;51.984;9.838;2023-04-03T13:25:34;101661.00;;;18.80
75822;BMP180;64454;51.984;9.838;2023-04-03T13:28:07;101675.00;;;19.20
75822;BMP180;64454;51.984;9.838;2023-04-03T13:30:39;101691.00;;;18.20
75822;BMP180;64454;51.984;9.838;2023-04-03T13:33:22;101675.00;;;17.30
75822;BMP180;64454;51.984;9.838;2023-04-03T13:35:55;101677.00;;;14.40
75822;BMP180;64454;51.984;9.838;2023-04-03T13:38:26;101669.00;;;15.30
75822;BMP180;64454;51.984;9.838;2023-04-03T13:40:57;101680.00;;;15.20
75822;BMP180;64454;51.984;9.838;2023-04-03T13:43:30;101682.00;;;14.20
75822;BMP180;64454;51.984;9.838;2023-04-03T13:46:03;101676.00;;;13.40
75822;BMP180;64454;51.984;9.838;2023-04-03T13:48:39;101671.00;;;12.70
75822;BMP180;64454;51.984;9.838;2023-04-03T13:51:19;101681.00;;;12.00
75822;BMP180;64454;51.984;9.838;2023-04-03T13:53:51;101680.00;;;11.40
75822;BMP180;64454;51.984;9.838;2023-04-03T13:56:30;101640.00;;;11.00
75822;BMP180;64454;51.984;9.838;2023-04-03T13:59:21;101639.00;;;13.90
75822;BMP180;64454;51.984;9.838;2023-04-03T14:01:53;101639.00;;;15.50
75822;BMP180;64454;51.984;9.838;2023-04-03T14:04:24;101660.00;;;15.20
75822;BMP180;64454;51.984;9.838;2023-04-03T14:06:53;101670.00;;;14.10
75822;BMP180;64454;51.984;9.838;2023-04-03T14:09:24;101666.00;;;12.20
75822;BMP180;64454;51.984;9.838;2023-04-03T14:11:56;101666.00;;;10.60
75822;BMP180;64454;51.984;9.838;2023-04-03T14:14:30;101633.00;;;10.20
75822;BMP180;64454;51.984;9.838;2023-04-03T14:17:00;101623.00;;;13.20
75822;BMP180;64454;51.984;9.838;2023-04-03T14:19:31;101629.00;;;14.50
75822;BMP180;64454;51.984;9.838;2023-04-03T14:22:01;101638.00;;;14.10
75822;BMP180;64454;51.984;9.838;2023-04-03T14:24:33;101647.00;;;13.00
75822;BMP180;64454;51.984;9.838;2023-04-03T14:27:17;101651.00;;;12.10
75822;BMP180;64454;51.984;9.838;2023-04-03T14:29:47;101647.00;;;11.10
75822;BMP180;64454;51.984;9.838;2023-04-03T14:32:17;101649.00;;;11.10
75822;BMP180;64454;51.984;9.838;2023-04-03T14:34:46;101646.00;;;10.20
75822;BMP180;64454;51.984;9.838;2023-04-03T14:37:18;101656.00;;;9.80